Time,TemperatureF,DewpointF,PressureIn,WindDirection,WindDirectionDegrees,WindSpeedMPH,WindSpeedGustMPH,Humidity,HourlyPrecipIn,Conditions,Clouds,dailyrainin,SoftwareType,DateUTC
2013-04-30 00:07:00,76.1,71.0,29.95,South,179,2.0,-999.0,85,-99.99,,,0.00,weatherlink.com 1.10,2013-04-30 04:07:00,
2013-04-30 00:22:00,76.1,71.0,29.95,ESE,121,2.0,-999.0,85,-99.99,,,0.00,weatherlink.com 1.10,2013-04-30 04:22:00,
2013-04-30 00:37:00,76.2,71.0,29.95,SE,143,0.0,-999.0,85,-99.99,,,0.00,weatherlink.com 1.10,2013-04-30 04:37:00,
2013-04-30 00:52:00,76.3,72.0,29.95,SSE,166,1.0,-999.0,85,-99.99,,,0.00,weatherlink.com 1.10,2013-04-30 04:52:00,
2013-04-30 01:07:00,76.4,72.0,29.94,SSW,192,0.0,-999.0,85,-99.99,,,0.00,weatherlink.com 1.10,2013-04-30 05:07:00,
2013-04-30 01:22:00,76.2,71.0,29.94,SSE,167,1.0,-999.0,85,-99.99,,,0.00,weatherlink.com 1.10,2013-04-30 05:22:00,
2013-04-30 01:37:00,76.1,71.0,29.94,SSE,164,0.0,-999.0,85,-99.99,,,0.00,weatherlink.com 1.10,2013-04-30 05:37:00,
2013-04-30 01:52:00,75.9,72.0,29.93,SSW,195,0.0,-999.0,86,-99.99,,,0.00,weatherlink.com 1.10,2013-04-30 05:52:00,
2013-04-30 02:07:00,75.6,71.0,29.93,SSE,168,0.0,-999.0,86,-99.99,,,0.00,weatherlink.com 1.10,2013-04-30 06:07:00,
2013-04-30 02:22:00,75.1,71.0,29.92,SSE,161,0.0,-999.0,87,-99.99,,,0.00,weatherlink.com 1.10,2013-04-30 06:22:00,
2013-04-30 02:37:00,74.6,71.0,29.92,SSE,160,0.0,-999.0,87,-99.99,,,0.00,weatherlink.com 1.10,2013-04-30 06:37:00,
2013-04-30 02:52:00,74.0,70.0,29.91,SSE,161,0.0,-999.0,88,-99.99,,,0.00,weatherlink.com 1.10,2013-04-30 06:52:00,
2013-04-30 03:07:00,73.8,70.0,29.91,SSE,160,0.0,-999.0,89,-99.99,,,0.00,weatherlink.com 1.10,2013-04-30 07:07:00,
2013-04-30 03:22:00,73.4,70.0,29.92,SSE,160,0.0,-999.0,90,-99.99,,,0.00,weatherlink.com 1.10,2013-04-30 07:22:00,
2013-04-30 03:37:00,73.1,70.0,29.91,SSE,161,0.0,-999.0,91,-99.99,,,0.00,weatherlink.com 1.10,2013-04-30 07:37:00,
2013-04-30 03:52:00,72.8,70.0,29.91,SSE,161,0.0,-999.0,90,-99.99,,,0.00,weatherlink.com 1.10,2013-04-30 07:52:00,
2013-04-30 04:07:00,72.7,70.0,29.91,WSW,238,0.0,-999.0,92,-99.99,,,0.00,weatherlink.com 1.10,2013-04-30 08:07:00,
2013-04-30 04:22:00,72.4,70.0,29.92,WSW,238,0.0,-999.0,91,-99.99,,,0.00,weatherlink.com 1.10,2013-04-30 08:22:00,
2013-04-30 04:37:00,72.0,70.0,29.92,WSW,238,0.0,-999.0,92,-99.99,,,0.00,weatherlink.com 1.10,2013-04-30 08:37:00,
2013-04-30 04:52:00,71.6,70.0,29.92,WSW,238,0.0,-999.0,93,-99.99,,,0.00,weatherlink.com 1.10,2013-04-30 08:52:00,
2013-04-30 05:07:00,71.5,69.0,29.92,WSW,238,0.0,-999.0,93,-99.99,,,0.00,weatherlink.com 1.10,2013-04-30 09:07:00,
2013-04-30 05:22:00,71.4,70.0,29.91,WSW,238,0.0,-999.0,94,-99.99,,,0.00,weatherlink.com 1.10,2013-04-30 09:22:00,
2013-04-30 05:37:00,71.5,70.0,29.91,WSW,238,0.0,-999.0,94,-99.99,,,0.00,weatherlink.com 1.10,2013-04-30 09:37:00,
2013-04-30 05:52:00,71.3,70.0,29.92,WSW,238,0.0,-999.0,94,-99.99,,,0.00,weatherlink.com 1.10,2013-04-30 09:52:00,
2013-04-30 06:07:00,71.2,69.0,29.93,WSW,238,0.0,-999.0,94,-99.99,,,0.00,weatherlink.com 1.10,2013-04-30 10:07:00,
2013-04-30 06:22:00,71.1,70.0,29.93,WSW,238,0.0,-999.0,95,-99.99,,,0.00,weatherlink.com 1.10,2013-04-30 10:22:00,
2013-04-30 06:37:00,70.9,70.0,29.93,WSW,238,0.0,-999.0,95,-99.99,,,0.00,weatherlink.com 1.10,2013-04-30 10:37:00,
2013-04-30 06:52:00,70.9,70.0,29.94,WSW,238,0.0,-999.0,95,-99.99,,,0.00,weatherlink.com 1.10,2013-04-30 10:52:00,
2013-04-30 07:07:00,70.9,70.0,29.95,WSW,238,0.0,-999.0,95,-99.99,,,0.00,weatherlink.com 1.10,2013-04-30 11:07:00,
2013-04-30 07:22:00,71.3,70.0,29.96,WSW,238,0.0,-999.0,95,-99.99,,,0.00,weatherlink.com 1.10,2013-04-30 11:22:00,
2013-04-30 07:37:00,72.0,71.0,29.96,WSW,238,0.0,-999.0,95,-99.99,,,0.00,weatherlink.com 1.10,2013-04-30 11:37:00,
2013-04-30 07:52:00,72.8,71.0,29.96,WSW,238,0.0,-999.0,94,-99.99,,,0.00,weatherlink.com 1.10,2013-04-30 11:52:00,
2013-04-30 08:07:00,73.3,71.0,29.97,WSW,238,0.0,-999.0,93,-99.99,,,0.00,weatherlink.com 1.10,2013-04-30 12:07:00,
2013-04-30 08:23:00,74.5,72.0,29.97,WSW,238,0.0,-999.0,91,-99.99,,,0.00,weatherlink.com 1.10,2013-04-30 12:23:00,
2013-04-30 08:38:00,77.1,72.0,29.97,WSW,244,0.0,-999.0,85,-99.99,,,0.00,weatherlink.com 1.10,2013-04-30 12:38:00,
2013-04-30 08:53:00,79.3,73.0,29.98,SW,232,0.0,-999.0,81,-99.99,,,0.00,weatherlink.com 1.10,2013-04-30 12:53:00,
2013-04-30 09:08:00,81.4,73.0,29.97,SSW,200,1.0,-999.0,76,-99.99,,,0.00,weatherlink.com 1.10,2013-04-30 13:08:00,
2013-04-30 09:23:00,82.3,73.0,29.97,South,182,2.0,-999.0,73,-99.99,,,0.00,weatherlink.com 1.10,2013-04-30 13:23:00,
2013-04-30 09:38:00,83.6,73.0,29.98,SSW,207,3.0,-999.0,70,-99.99,,,0.00,weatherlink.com 1.10,2013-04-30 13:38:00,
2013-04-30 09:53:00,84.3,73.0,29.98,SSE,155,2.0,-999.0,68,-99.99,,,0.00,weatherlink.com 1.10,2013-04-30 13:53:00,
2013-04-30 10:08:00,82.8,72.0,29.98,SSE,168,0.0,-999.0,70,-99.99,,,0.00,weatherlink.com 1.10,2013-04-30 14:08:00,
2013-04-30 10:23:00,83.3,72.0,29.98,SSW,194,0.0,-999.0,69,-99.99,,,0.00,weatherlink.com 1.10,2013-04-30 14:23:00,
2013-04-30 10:38:00,82.8,73.0,29.98,SSE,149,6.0,-999.0,71,-99.99,,,0.00,weatherlink.com 1.10,2013-04-30 14:38:00,
2013-04-30 10:53:00,81.1,70.0,29.98,SSE,150,1.0,-999.0,69,-99.99,,,0.00,weatherlink.com 1.10,2013-04-30 14:53:00,
2013-04-30 11:08:00,81.5,70.0,29.98,East,92,2.0,-999.0,69,-99.99,,,0.00,weatherlink.com 1.10,2013-04-30 15:08:00,
2013-04-30 11:23:00,83.1,71.0,29.97,ESE,115,1.0,-999.0,66,-99.99,,,0.00,weatherlink.com 1.10,2013-04-30 15:23:00,
2013-04-30 11:38:00,84.3,70.0,29.97,ESE,102,8.0,-999.0,62,-99.99,,,0.00,weatherlink.com 1.10,2013-04-30 15:38:00,
2013-04-30 11:53:00,85.4,69.0,29.95,SE,144,5.0,-999.0,59,-99.99,,,0.00,weatherlink.com 1.10,2013-04-30 15:53:00,
2013-04-30 12:08:00,85.0,70.0,29.96,SE,137,1.0,-999.0,60,-99.99,,,0.00,weatherlink.com 1.10,2013-04-30 16:08:00,
2013-04-30 12:23:00,82.9,72.0,29.96,South,189,4.0,-999.0,69,-99.99,,,0.00,weatherlink.com 1.10,2013-04-30 16:23:00,
2013-04-30 12:38:00,80.5,68.0,29.96,SSW,203,5.0,-999.0,66,-99.99,,,0.00,weatherlink.com 1.10,2013-04-30 16:38:00,
2013-04-30 12:53:00,80.1,71.0,29.95,SE,130,8.0,-999.0,73,-99.99,,,0.00,weatherlink.com 1.10,2013-04-30 16:53:00,
2013-04-30 13:08:00,78.6,69.0,29.96,SW,221,6.0,-999.0,73,-99.99,,,0.00,weatherlink.com 1.10,2013-04-30 17:08:00,
2013-04-30 13:23:00,74.6,68.0,29.97,SSW,209,8.0,-999.0,81,-99.99,,,0.01,weatherlink.com 1.10,2013-04-30 17:23:00,
2013-04-30 13:38:00,72.7,69.0,29.96,West,277,2.0,-999.0,87,-99.99,,,0.10,weatherlink.com 1.10,2013-04-30 17:38:00,
2013-04-30 13:53:00,72.2,69.0,29.94,SSW,207,1.0,-999.0,89,-99.99,,,0.12,weatherlink.com 1.10,2013-04-30 17:53:00,
2013-04-30 14:08:00,73.5,70.0,29.95,SE,144,1.0,-999.0,87,-99.99,,,0.13,weatherlink.com 1.10,2013-04-30 18:08:00,
2013-04-30 14:23:00,75.2,70.0,29.96,SE,126,2.0,-999.0,83,-99.99,,,0.13,weatherlink.com 1.10,2013-04-30 18:23:00,
2013-04-30 14:38:00,75.7,70.0,29.96,NE,47,2.0,-999.0,82,-99.99,,,0.13,weatherlink.com 1.10,2013-04-30 18:38:00,
2013-04-30 14:53:00,76.4,70.0,29.95,NNW,329,1.0,-999.0,81,-99.99,,,0.13,weatherlink.com 1.10,2013-04-30 18:53:00,
2013-04-30 15:08:00,77.1,70.0,29.95,ESE,110,2.0,-999.0,79,-99.99,,,0.13,weatherlink.com 1.10,2013-04-30 19:08:00,
2013-04-30 15:23:00,78.7,71.0,29.95,East,91,2.0,-999.0,77,-99.99,,,0.13,weatherlink.com 1.10,2013-04-30 19:23:00,
2013-04-30 15:38:00,78.6,71.0,29.95,East,80,3.0,-999.0,78,-99.99,,,0.13,weatherlink.com 1.10,2013-04-30 19:38:00,
2013-04-30 15:53:00,79.5,72.0,29.95,WNW,298,0.0,-999.0,78,-99.99,,,0.13,weatherlink.com 1.10,2013-04-30 19:53:00,
2013-04-30 16:08:00,80.9,72.0,29.93,ENE,59,3.0,-999.0,75,-99.99,,,0.13,weatherlink.com 1.10,2013-04-30 20:08:00,
2013-04-30 16:23:00,81.3,72.0,29.93,ENE,67,4.0,-999.0,74,-99.99,,,0.13,weatherlink.com 1.10,2013-04-30 20:23:00,
2013-04-30 16:38:00,79.9,72.0,29.94,SSE,165,4.0,-999.0,76,-99.99,,,0.13,weatherlink.com 1.10,2013-04-30 20:38:00,
2013-04-30 16:53:00,78.6,72.0,29.95,SE,130,4.0,-999.0,79,-99.99,,,0.13,weatherlink.com 1.10,2013-04-30 20:53:00,
2013-04-30 17:08:00,78.0,71.0,29.95,SE,146,2.0,-999.0,79,-99.99,,,0.13,weatherlink.com 1.10,2013-04-30 21:08:00,
2013-04-30 17:23:00,77.5,71.0,29.94,SSE,164,1.0,-999.0,79,-99.99,,,0.13,weatherlink.com 1.10,2013-04-30 21:23:00,
2013-04-30 17:38:00,77.2,71.0,29.94,East,91,1.0,-999.0,80,-99.99,,,0.13,weatherlink.com 1.10,2013-04-30 21:38:00,
2013-04-30 18:08:00,77.5,71.0,29.93,ESE,114,4.0,-999.0,81,-99.99,,,0.13,weatherlink.com 1.10,2013-04-30 22:08:00,
2013-04-30 18:23:00,77.7,71.0,29.93,SE,136,1.0,-999.0,80,-99.99,,,0.13,weatherlink.com 1.10,2013-04-30 22:23:00,
2013-04-30 18:38:00,77.6,71.0,29.93,SSE,160,0.0,-999.0,79,-99.99,,,0.13,weatherlink.com 1.10,2013-04-30 22:38:00,
2013-04-30 18:53:00,77.7,71.0,29.93,SSE,149,1.0,-999.0,80,-99.99,,,0.13,weatherlink.com 1.10,2013-04-30 22:53:00,
2013-04-30 19:08:00,77.6,71.0,29.93,SE,144,1.0,-999.0,81,-99.99,,,0.13,weatherlink.com 1.10,2013-04-30 23:08:00,
2013-04-30 19:23:00,77.4,71.0,29.94,West,265,2.0,-999.0,81,-99.99,,,0.13,weatherlink.com 1.10,2013-04-30 23:23:00,
2013-04-30 19:38:00,77.2,71.0,29.94,SSE,165,0.0,-999.0,81,-99.99,,,0.13,weatherlink.com 1.10,2013-04-30 23:38:00,
2013-04-30 19:53:00,76.8,71.0,29.94,SSE,159,2.0,-999.0,81,-99.99,,,0.13,weatherlink.com 1.10,2013-04-30 23:53:00,
2013-04-30 20:08:00,76.4,71.0,29.94,SSE,167,0.0,-999.0,82,-99.99,,,0.13,weatherlink.com 1.10,2013-05-01 00:08:00,
2013-04-30 20:23:00,76.0,71.0,29.94,SSE,161,0.0,-999.0,84,-99.99,,,0.13,weatherlink.com 1.10,2013-05-01 00:23:00,
2013-04-30 20:38:00,75.9,71.0,29.94,SSW,202,0.0,-999.0,84,-99.99,,,0.13,weatherlink.com 1.10,2013-05-01 00:38:00,
2013-04-30 20:53:00,75.8,71.0,29.95,SSE,166,0.0,-999.0,85,-99.99,,,0.13,weatherlink.com 1.10,2013-05-01 00:53:00,
2013-04-30 21:08:00,75.5,71.0,29.95,SSE,159,0.0,-999.0,85,-99.99,,,0.13,weatherlink.com 1.10,2013-05-01 01:08:00,
2013-04-30 21:23:00,75.1,71.0,29.96,South,191,0.0,-999.0,87,-99.99,,,0.13,weatherlink.com 1.10,2013-05-01 01:23:00,
2013-04-30 21:38:00,74.7,71.0,29.96,SSE,155,0.0,-999.0,88,-99.99,,,0.13,weatherlink.com 1.10,2013-05-01 01:38:00,
2013-04-30 21:53:00,74.4,71.0,29.96,SSE,155,0.0,-999.0,89,-99.99,,,0.13,weatherlink.com 1.10,2013-05-01 01:53:00,
2013-04-30 22:08:00,73.9,71.0,29.97,SSE,155,0.0,-999.0,89,-99.99,,,0.13,weatherlink.com 1.10,2013-05-01 02:08:00,
2013-04-30 22:23:00,73.6,71.0,29.97,SSE,155,0.0,-999.0,91,-99.99,,,0.13,weatherlink.com 1.10,2013-05-01 02:23:00,
2013-04-30 22:38:00,73.4,71.0,29.97,SE,141,0.0,-999.0,91,-99.99,,,0.13,weatherlink.com 1.10,2013-05-01 02:38:00,
2013-04-30 22:53:00,73.1,70.0,29.97,SE,142,0.0,-999.0,91,-99.99,,,0.13,weatherlink.com 1.10,2013-05-01 02:53:00,
2013-04-30 23:08:00,72.7,70.0,29.97,SE,141,0.0,-999.0,92,-99.99,,,0.13,weatherlink.com 1.10,2013-05-01 03:08:00,
2013-04-30 23:23:00,72.8,70.0,29.97,SE,136,0.0,-999.0,92,-99.99,,,0.13,weatherlink.com 1.10,2013-05-01 03:23:00,
2013-04-30 23:38:00,72.6,70.0,29.97,SE,136,0.0,-999.0,92,-99.99,,,0.13,weatherlink.com 1.10,2013-05-01 03:38:00,
2013-04-30 23:53:00,72.5,70.0,29.97,SE,136,0.0,-999.0,93,-99.99,,,0.13,weatherlink.com 1.10,2013-05-01 03:53:00,